createdAt,value
2017-07-19T00:01:05.207Z,68.80
2017-07-19T00:03:33.283Z,69.20
2017-07-19T00:06:01.544Z,69.10
2017-07-19T00:08:29.692Z,70.10
2017-07-19T00:10:57.887Z,69.90
2017-07-19T00:13:25.955Z,69.90
2017-07-19T00:15:54.047Z,69.70
2017-07-19T00:18:22.135Z,70.20
2017-07-19T00:20:50.227Z,70.20
2017-07-19T00:23:18.317Z,70.10
2017-07-19T00:25:46.387Z,70.30
2017-07-19T00:28:14.468Z,69.70
2017-07-19T00:30:42.534Z,68.90
2017-07-19T00:33:10.624Z,68.40
2017-07-19T00:35:38.690Z,68.20
2017-07-19T00:38:06.775Z,67.80
2017-07-19T00:40:34.859Z,67.90
2017-07-19T00:43:02.942Z,68.70
2017-07-19T00:45:31.015Z,68.60
2017-07-19T00:47:59.099Z,69.00
2017-07-19T00:50:27.180Z,69.20
2017-07-19T00:52:55.262Z,69.60
2017-07-19T00:55:23.347Z,69.00
2017-07-19T00:57:51.441Z,69.20
2017-07-19T01:00:19.522Z,69.00
2017-07-19T01:02:47.598Z,69.00
2017-07-19T01:05:15.689Z,69.50
2017-07-19T01:07:43.775Z,70.20
2017-07-19T01:10:11.869Z,69.20
2017-07-19T01:12:39.951Z,69.50
2017-07-19T01:15:08.050Z,70.50
2017-07-19T01:17:36.133Z,70.20
2017-07-19T01:20:04.241Z,69.70
2017-07-19T01:22:32.315Z,69.80
2017-07-19T01:25:00.395Z,69.60
2017-07-19T01:27:28.474Z,69.70
2017-07-19T01:29:56.560Z,69.80
2017-07-19T01:32:24.646Z,69.70
2017-07-19T01:34:52.878Z,69.60
2017-07-19T01:37:20.968Z,69.60
2017-07-19T01:39:49.051Z,70.00
2017-07-19T01:42:17.139Z,70.30
2017-07-19T01:44:45.218Z,70.40
2017-07-19T01:47:13.325Z,70.40
2017-07-19T01:49:41.406Z,70.00
2017-07-19T01:52:09.482Z,71.40
2017-07-19T01:54:37.577Z,72.80
2017-07-19T01:57:05.653Z,72.50
2017-07-19T01:59:33.758Z,72.70
2017-07-19T02:02:01.831Z,73.60
2017-07-19T02:04:29.932Z,73.70
2017-07-19T02:06:58.018Z,74.20
2017-07-19T02:09:26.100Z,74.60
2017-07-19T02:11:54.181Z,75.10
2017-07-19T02:14:22.276Z,75.50
2017-07-19T02:16:50.370Z,75.90
2017-07-19T02:19:18.555Z,75.30
2017-07-19T02:21:46.819Z,75.20
2017-07-19T02:24:14.907Z,75.90
2017-07-19T02:26:42.986Z,76.30
2017-07-19T02:29:11.058Z,76.20
2017-07-19T02:31:39.144Z,78.60
2017-07-19T02:34:07.222Z,79.40
2017-07-19T02:36:35.319Z,78.40
2017-07-19T02:39:03.404Z,79.10
2017-07-19T02:41:31.508Z,78.50
2017-07-19T02:43:59.584Z,78.10
2017-07-19T02:46:27.659Z,77.50
2017-07-19T02:48:55.739Z,78.80
2017-07-19T02:51:23.828Z,80.00
2017-07-19T02:53:51.914Z,79.00
2017-07-19T02:56:20.000Z,79.20
2017-07-19T02:58:48.094Z,79.90
2017-07-19T03:01:16.174Z,79.50
2017-07-19T03:03:44.256Z,79.70
2017-07-19T03:06:12.339Z,80.90
2017-07-19T03:08:40.442Z,80.30
2017-07-19T03:11:08.535Z,80.40
2017-07-19T03:13:37.514Z,81.80
2017-07-19T03:16:05.690Z,81.60
2017-07-19T03:18:33.763Z,81.30
2017-07-19T03:21:01.855Z,81.10
2017-07-19T03:23:30.707Z,80.60
2017-07-19T03:25:58.802Z,80.60
2017-07-19T03:28:26.907Z,80.60
2017-07-19T03:30:54.974Z,80.70
2017-07-19T03:33:23.053Z,80.60
2017-07-19T03:35:51.144Z,80.60
2017-07-19T03:38:19.452Z,81.10
2017-07-19T03:40:47.552Z,81.50
2017-07-19T03:43:15.631Z,81.40
2017-07-19T03:45:43.737Z,81.10
2017-07-19T03:48:11.824Z,81.50
2017-07-19T03:50:39.915Z,82.20
2017-07-19T03:53:08.960Z,82.90
2017-07-19T03:55:37.005Z,82.90
2017-07-19T03:58:05.100Z,83.60
2017-07-19T04:00:33.181Z,84.20
2017-07-19T04:03:01.383Z,83.10
2017-07-19T04:05:29.459Z,83.00
2017-07-19T04:07:57.548Z,83.80
2017-07-19T04:10:25.628Z,84.20
2017-07-19T04:12:53.731Z,83.20
2017-07-19T04:15:21.811Z,82.90
2017-07-19T04:17:49.899Z,83.00
2017-07-19T04:20:17.980Z,83.40
2017-07-19T04:22:46.063Z,84.70
2017-07-19T04:25:14.165Z,84.20
2017-07-19T04:27:42.253Z,83.80
2017-07-19T04:30:10.338Z,83.70
2017-07-19T04:32:38.446Z,82.70
2017-07-19T04:35:06.532Z,82.00
2017-07-19T04:37:34.634Z,81.50
2017-07-19T04:40:02.736Z,81.40
2017-07-19T04:42:31.721Z,81.60
2017-07-19T04:44:59.797Z,80.70
2017-07-19T04:47:27.888Z,82.30
2017-07-19T04:49:55.975Z,82.50
2017-07-19T04:52:24.072Z,80.90
2017-07-19T04:54:52.165Z,79.70
2017-07-19T04:57:20.256Z,79.20
2017-07-19T04:59:48.353Z,77.40
2017-07-19T05:02:16.441Z,76.70
2017-07-19T05:04:44.523Z,75.90
2017-07-19T05:07:12.619Z,75.00
2017-07-19T05:09:40.708Z,75.10
2017-07-19T05:12:08.799Z,73.90
2017-07-19T05:14:36.980Z,73.20
2017-07-19T05:17:05.067Z,72.30
2017-07-19T05:19:33.156Z,71.90
2017-07-19T05:22:01.239Z,71.70
2017-07-19T05:24:29.328Z,70.60
2017-07-19T05:26:57.423Z,69.60
2017-07-19T05:29:25.511Z,68.50
2017-07-19T05:31:53.598Z,69.20
2017-07-19T05:34:21.704Z,69.10
2017-07-19T05:36:49.791Z,69.00
2017-07-19T05:39:17.876Z,69.30
2017-07-19T05:41:45.982Z,69.50
2017-07-19T05:44:14.059Z,68.70
2017-07-19T05:46:42.164Z,66.10
2017-07-19T05:49:10.249Z,64.90
2017-07-19T05:51:38.345Z,65.60
2017-07-19T05:54:06.430Z,65.00
2017-07-19T05:56:34.533Z,63.60
2017-07-19T05:59:02.642Z,64.20
2017-07-19T06:01:30.723Z,63.70
2017-07-19T06:03:58.832Z,63.00
2017-07-19T06:06:27.119Z,63.10
2017-07-19T06:08:55.224Z,63.40
2017-07-19T06:11:23.435Z,64.30
2017-07-19T06:13:51.522Z,65.90
2017-07-19T06:16:19.608Z,65.20
2017-07-19T06:18:47.716Z,63.70
2017-07-19T06:21:15.799Z,63.90
2017-07-19T06:23:43.887Z,63.60
2017-07-19T06:26:11.981Z,63.50
2017-07-19T06:28:40.069Z,62.20
2017-07-19T06:31:08.161Z,61.50
2017-07-19T06:33:36.245Z,61.00
2017-07-19T06:36:04.341Z,61.20
2017-07-19T06:38:32.437Z,61.30
2017-07-19T06:41:00.523Z,59.80
2017-07-19T06:43:28.595Z,59.30
2017-07-19T06:45:56.679Z,58.80
2017-07-19T06:48:24.768Z,58.60
2017-07-19T06:50:52.859Z,58.40
2017-07-19T06:53:20.947Z,58.50
2017-07-19T06:55:49.016Z,58.30
2017-07-19T06:58:17.100Z,57.30
2017-07-19T07:00:45.175Z,55.10
2017-07-19T07:03:13.259Z,54.50
2017-07-19T07:05:41.329Z,56.10
2017-07-19T07:08:09.405Z,57.70
2017-07-19T07:10:37.481Z,56.90
2017-07-19T07:13:05.582Z,54.30
2017-07-19T07:15:33.660Z,54.70
2017-07-19T07:18:01.733Z,54.60
2017-07-19T07:20:29.815Z,54.20
2017-07-19T07:22:57.884Z,55.30
2017-07-19T07:25:25.978Z,54.60
2017-07-19T07:27:54.046Z,52.70
2017-07-19T07:30:22.132Z,51.50
2017-07-19T07:32:50.209Z,50.90
2017-07-19T07:35:18.297Z,50.70
2017-07-19T07:37:46.373Z,51.90
2017-07-19T07:40:14.469Z,52.80
2017-07-19T07:42:42.546Z,52.80
2017-07-19T07:45:10.628Z,53.30
2017-07-19T07:47:38.708Z,51.90
2017-07-19T07:50:06.783Z,51.30
2017-07-19T07:52:34.881Z,50.60
2017-07-19T07:55:03.751Z,49.90
2017-07-19T07:57:31.823Z,49.40
2017-07-19T07:59:59.895Z,51.50
2017-07-19T08:02:27.987Z,52.00
2017-07-19T08:04:56.047Z,49.50
2017-07-19T08:07:24.132Z,48.70
2017-07-19T08:09:52.206Z,47.70
2017-07-19T08:12:20.300Z,46.70
2017-07-19T08:14:48.368Z,46.90
2017-07-19T08:17:16.436Z,48.10
2017-07-19T08:19:44.515Z,49.40
2017-07-19T08:22:12.600Z,48.90
2017-07-19T08:24:40.683Z,47.10
2017-07-19T08:27:08.777Z,46.40
2017-07-19T08:29:36.856Z,45.40
2017-07-19T08:32:04.939Z,43.60
2017-07-19T08:34:33.021Z,42.30
2017-07-19T08:37:01.104Z,43.40
2017-07-19T08:39:29.196Z,44.50
2017-07-19T08:41:57.267Z,44.10
2017-07-19T08:44:25.348Z,43.60
2017-07-19T08:46:53.423Z,42.40
2017-07-19T08:49:21.504Z,42.40
2017-07-19T08:51:49.589Z,41.90
2017-07-19T08:54:17.658Z,42.80
2017-07-19T08:56:45.750Z,42.80
2017-07-19T08:59:13.813Z,41.30
2017-07-19T09:01:41.895Z,40.70
2017-07-19T09:04:09.972Z,40.50
2017-07-19T09:06:38.050Z,40.90
2017-07-19T09:09:06.126Z,41.90
2017-07-19T09:11:34.216Z,43.10
2017-07-19T09:14:02.300Z,40.70
2017-07-19T09:16:30.376Z,40.80
2017-07-19T09:18:58.468Z,39.10
2017-07-19T09:21:26.539Z,41.30
2017-07-19T09:23:54.628Z,41.40
2017-07-19T09:26:22.710Z,40.80
2017-07-19T09:28:50.794Z,38.20
2017-07-19T09:31:18.867Z,37.10
2017-07-19T09:33:46.972Z,41.10
2017-07-19T09:36:15.051Z,41.90
2017-07-19T09:38:43.148Z,39.70
2017-07-19T09:41:11.233Z,38.70
2017-07-19T09:43:39.310Z,39.00
2017-07-19T09:46:07.399Z,39.50
2017-07-19T09:48:35.475Z,39.40
2017-07-19T09:51:03.571Z,39.30
2017-07-19T09:53:31.643Z,38.70
2017-07-19T09:55:59.722Z,38.10
2017-07-19T09:58:27.800Z,38.20
2017-07-19T10:00:55.889Z,37.30
2017-07-19T10:03:23.973Z,38.20
2017-07-19T10:05:52.060Z,40.10
2017-07-19T10:08:20.139Z,39.50
2017-07-19T10:10:48.212Z,40.50
2017-07-19T10:13:16.296Z,38.60
2017-07-19T10:15:44.379Z,38.00
2017-07-19T10:18:12.470Z,39.30
2017-07-19T10:20:40.544Z,36.30
2017-07-19T10:23:08.625Z,35.00
2017-07-19T10:25:36.711Z,36.00
2017-07-19T10:28:04.791Z,36.10
2017-07-19T10:30:32.863Z,36.60
2017-07-19T10:33:00.968Z,36.30
2017-07-19T10:35:29.068Z,36.00
2017-07-19T10:37:57.135Z,34.80
2017-07-19T10:40:25.210Z,34.00
2017-07-19T10:42:53.283Z,35.50
2017-07-19T10:45:21.366Z,35.70
2017-07-19T10:47:49.448Z,34.70
2017-07-19T10:50:17.518Z,34.80
2017-07-19T10:52:45.608Z,34.10
2017-07-19T10:55:13.700Z,33.50
2017-07-19T10:57:41.767Z,32.80
2017-07-19T11:00:09.843Z,33.80
2017-07-19T11:02:37.912Z,32.80
2017-07-19T11:05:05.995Z,33.60
2017-07-19T11:07:34.058Z,32.60
2017-07-19T11:10:02.134Z,32.00
2017-07-19T11:12:30.218Z,31.00
2017-07-19T11:14:58.294Z,32.30
2017-07-19T11:20:03.603Z,29.50
2017-07-19T11:22:31.687Z,31.60
2017-07-19T11:24:59.763Z,29.80
2017-07-19T11:27:27.855Z,30.00
2017-07-19T11:29:55.939Z,31.00
2017-07-19T11:32:24.019Z,31.10
2017-07-19T11:34:52.096Z,30.10
2017-07-19T11:37:20.196Z,30.70
2017-07-19T11:39:48.263Z,30.80
2017-07-19T11:42:16.335Z,32.20
2017-07-19T11:44:44.423Z,30.60
2017-07-19T11:47:12.520Z,31.70
2017-07-19T11:49:40.605Z,31.30
2017-07-19T11:52:08.681Z,31.20
2017-07-19T11:54:36.755Z,29.60
2017-07-19T11:57:04.840Z,29.30
2017-07-19T11:59:32.928Z,29.30
2017-07-19T12:02:00.999Z,28.60
2017-07-19T12:04:29.079Z,28.00
2017-07-19T12:06:57.151Z,28.50
2017-07-19T12:09:25.232Z,28.00
2017-07-19T12:11:53.308Z,28.50
2017-07-19T12:14:21.427Z,28.30
2017-07-19T12:16:49.494Z,27.30
2017-07-19T12:19:17.575Z,27.60
2017-07-19T12:21:45.665Z,28.30
2017-07-19T12:24:13.744Z,29.00
2017-07-19T12:26:41.835Z,29.00
2017-07-19T12:29:09.912Z,28.90
2017-07-19T12:31:37.989Z,29.10
2017-07-19T12:34:06.063Z,29.90
2017-07-19T12:36:34.149Z,29.00
2017-07-19T12:39:02.235Z,29.30
2017-07-19T12:41:30.315Z,29.00
2017-07-19T12:43:58.401Z,27.40
2017-07-19T12:46:26.480Z,29.60
2017-07-19T12:48:54.557Z,31.10
2017-07-19T12:51:22.640Z,29.50
2017-07-19T12:53:50.709Z,30.60
2017-07-19T12:56:18.780Z,29.70
2017-07-19T12:58:46.865Z,29.20
2017-07-19T13:01:14.941Z,28.40
2017-07-19T13:03:43.019Z,27.90
2017-07-19T13:06:11.092Z,29.00
2017-07-19T13:08:39.184Z,29.40
2017-07-19T13:11:07.249Z,28.30
2017-07-19T13:13:35.328Z,26.90
2017-07-19T13:16:03.406Z,26.80
2017-07-19T13:18:31.484Z,27.70
2017-07-19T13:20:59.564Z,29.30
2017-07-19T13:23:27.633Z,29.10
2017-07-19T13:25:55.719Z,29.80
2017-07-19T13:28:23.794Z,29.60
2017-07-19T13:30:51.871Z,29.10
2017-07-19T13:33:19.951Z,30.10
2017-07-19T13:35:48.036Z,28.80
2017-07-19T13:38:16.119Z,28.80
2017-07-19T13:40:44.192Z,28.60
2017-07-19T13:43:12.259Z,28.50
2017-07-19T13:45:40.509Z,29.50
2017-07-19T13:48:08.735Z,28.70
2017-07-19T13:50:36.872Z,29.10
2017-07-19T13:53:04.947Z,27.80
2017-07-19T13:55:33.042Z,28.10
2017-07-19T13:58:01.141Z,27.50
2017-07-19T14:00:29.221Z,27.60
2017-07-19T14:02:57.302Z,28.20
2017-07-19T14:05:25.392Z,29.60
2017-07-19T14:07:53.664Z,29.20
2017-07-19T14:10:21.803Z,29.30
2017-07-19T14:12:49.891Z,29.90
2017-07-19T14:15:18.073Z,30.00
2017-07-19T14:17:46.164Z,29.60
2017-07-19T14:20:14.239Z,30.00
2017-07-19T14:22:42.323Z,29.30
2017-07-19T14:25:10.402Z,29.20
2017-07-19T14:27:38.472Z,28.90
2017-07-19T14:30:06.759Z,29.30
2017-07-19T14:32:34.843Z,29.30
2017-07-19T14:35:02.954Z,29.10
2017-07-19T14:37:31.026Z,30.20
2017-07-19T14:39:59.107Z,29.90
2017-07-19T14:42:27.187Z,29.50
2017-07-19T14:44:55.268Z,29.70
2017-07-19T14:47:23.344Z,29.00
2017-07-19T14:49:51.440Z,29.20
2017-07-19T14:52:19.532Z,28.90
2017-07-19T14:54:47.596Z,29.30
2017-07-19T14:57:15.687Z,28.50
2017-07-19T14:59:43.772Z,27.60
2017-07-19T15:02:11.858Z,27.60
2017-07-19T15:04:39.942Z,27.40
2017-07-19T15:07:08.036Z,27.90
2017-07-19T15:09:36.122Z,29.60
2017-07-19T15:12:04.192Z,30.30
2017-07-19T15:14:32.267Z,30.60
2017-07-19T15:17:00.343Z,30.10
2017-07-19T15:19:28.419Z,30.70
2017-07-19T15:21:56.500Z,30.60
2017-07-19T15:24:24.573Z,30.50
2017-07-19T15:26:52.664Z,30.60
2017-07-19T15:29:20.748Z,30.50
2017-07-19T15:31:48.824Z,30.50
2017-07-19T15:34:16.916Z,30.40
2017-07-19T15:36:44.990Z,31.10
2017-07-19T15:39:13.080Z,30.50
2017-07-19T15:41:41.163Z,31.20
2017-07-19T15:44:09.244Z,31.20
2017-07-19T15:46:37.318Z,31.20
2017-07-19T15:49:05.396Z,30.20
2017-07-19T15:51:33.471Z,30.50
2017-07-19T15:54:01.551Z,30.20
2017-07-19T15:56:29.632Z,30.60
2017-07-19T15:58:57.713Z,31.10
2017-07-19T16:01:25.792Z,31.90
2017-07-19T16:03:53.864Z,31.60
2017-07-19T16:06:21.952Z,32.70
2017-07-19T16:08:50.024Z,32.00
2017-07-19T16:11:18.116Z,31.40
2017-07-19T16:13:46.195Z,31.60
2017-07-19T16:16:14.277Z,31.80
2017-07-19T16:18:42.352Z,31.50
2017-07-19T16:21:10.448Z,31.60
2017-07-19T16:23:38.534Z,32.10
2017-07-19T16:26:06.627Z,32.20
2017-07-19T16:28:34.711Z,32.00
2017-07-19T16:31:03.004Z,31.90
2017-07-19T16:33:31.082Z,32.30
2017-07-19T16:35:59.164Z,31.70
2017-07-19T16:38:27.234Z,31.60
2017-07-19T16:40:55.309Z,33.70
2017-07-19T16:43:23.392Z,32.00
2017-07-19T16:45:51.477Z,32.40
2017-07-19T16:48:19.557Z,31.90
2017-07-19T16:50:47.640Z,32.20
2017-07-19T16:53:15.733Z,32.10
2017-07-19T16:55:43.817Z,32.00
2017-07-19T16:58:11.900Z,32.30
2017-07-19T17:00:39.980Z,31.50
2017-07-19T17:03:08.071Z,31.80
2017-07-19T17:05:36.147Z,31.90
2017-07-19T17:08:04.218Z,31.70
2017-07-19T17:10:32.290Z,31.70
2017-07-19T17:13:00.365Z,32.60
2017-07-19T17:15:28.443Z,32.00
2017-07-19T17:17:56.521Z,31.80
2017-07-19T17:20:24.601Z,32.30
2017-07-19T17:22:52.682Z,32.50
2017-07-19T17:25:20.759Z,32.90
2017-07-19T17:27:48.838Z,32.80
2017-07-19T17:30:16.930Z,32.60
2017-07-19T17:32:45.002Z,32.80
2017-07-19T17:35:13.096Z,32.00
2017-07-19T17:37:41.166Z,31.10
2017-07-19T17:40:09.244Z,30.70
2017-07-19T17:42:37.328Z,30.80
2017-07-19T17:45:05.404Z,31.20
2017-07-19T17:47:33.483Z,31.30
2017-07-19T17:50:01.566Z,31.40
2017-07-19T17:52:29.643Z,31.60
2017-07-19T17:54:57.720Z,32.30
2017-07-19T17:57:25.803Z,32.50
2017-07-19T17:59:53.878Z,32.60
2017-07-19T18:02:21.972Z,32.40
2017-07-19T18:04:50.056Z,33.10
2017-07-19T18:07:18.156Z,33.60
2017-07-19T18:09:46.222Z,33.80
2017-07-19T18:12:14.294Z,33.80
2017-07-19T18:14:42.388Z,34.20
2017-07-19T18:17:10.469Z,34.70
2017-07-19T18:19:38.564Z,34.20
2017-07-19T18:22:06.642Z,34.70
2017-07-19T18:24:34.722Z,35.80
2017-07-19T18:27:03.016Z,35.80
2017-07-19T18:29:31.083Z,36.90
2017-07-19T18:31:59.153Z,36.80
2017-07-19T18:34:27.239Z,36.80
2017-07-19T18:36:55.320Z,37.40
2017-07-19T18:39:23.395Z,36.40
2017-07-19T18:41:51.483Z,39.00
2017-07-19T18:44:35.368Z,38.80
2017-07-19T18:47:09.028Z,39.10
2017-07-19T18:49:52.009Z,38.80
2017-07-19T18:52:20.086Z,39.60
2017-07-19T18:54:48.162Z,38.50
2017-07-19T18:57:16.253Z,38.10
2017-07-19T18:59:44.332Z,38.40
2017-07-19T19:02:12.428Z,39.00
2017-07-19T19:04:40.623Z,38.80
2017-07-19T19:07:08.785Z,39.40
2017-07-19T19:09:36.867Z,39.20
2017-07-19T19:12:04.949Z,39.60
2017-07-19T19:14:33.025Z,40.40
2017-07-19T19:17:01.116Z,41.00
2017-07-19T19:19:29.195Z,39.70
2017-07-19T19:21:57.283Z,40.00
2017-07-19T19:24:25.360Z,41.20
2017-07-19T19:26:53.431Z,41.50
2017-07-19T19:29:21.511Z,41.20
2017-07-19T19:31:49.584Z,40.50
2017-07-19T19:34:17.667Z,42.90
2017-07-19T19:36:45.743Z,41.50
2017-07-19T19:39:13.831Z,41.80
2017-07-19T19:41:41.898Z,42.40
2017-07-19T19:44:09.992Z,41.90
2017-07-19T19:46:38.068Z,41.70
2017-07-19T19:49:06.159Z,42.40
2017-07-19T19:51:34.251Z,42.60
2017-07-19T19:54:02.351Z,42.60
2017-07-19T19:56:30.436Z,42.30
2017-07-19T19:58:58.509Z,42.00
2017-07-19T20:01:26.606Z,41.90
2017-07-19T20:03:54.715Z,42.60
2017-07-19T20:06:22.805Z,43.20
2017-07-19T20:08:50.951Z,43.00
2017-07-19T20:11:19.052Z,43.30
2017-07-19T20:13:47.152Z,44.40
2017-07-19T20:16:15.244Z,44.30
2017-07-19T20:18:43.317Z,44.20
2017-07-19T20:21:11.389Z,44.30
2017-07-19T20:23:39.476Z,44.50
2017-07-19T20:26:07.592Z,44.60
2017-07-19T20:28:35.666Z,45.00
2017-07-19T20:31:03.756Z,45.70
2017-07-19T20:33:31.843Z,45.70
2017-07-19T20:35:59.915Z,45.70
2017-07-19T20:38:28.019Z,45.90
2017-07-19T20:40:56.334Z,46.30
2017-07-19T20:43:24.444Z,46.30
2017-07-19T20:45:52.537Z,46.30
2017-07-19T20:48:20.619Z,46.60
2017-07-19T20:50:48.693Z,46.70
2017-07-19T20:53:16.778Z,47.00
2017-07-19T20:55:44.925Z,46.90
2017-07-19T20:58:13.027Z,47.10
2017-07-19T21:00:41.101Z,47.00
2017-07-19T21:03:09.231Z,47.20
2017-07-19T21:05:37.332Z,47.40
2017-07-19T21:08:05.413Z,47.50
2017-07-19T21:10:33.842Z,47.50
2017-07-19T21:13:02.006Z,47.70
2017-07-19T21:15:30.187Z,48.00
2017-07-19T21:17:58.552Z,48.10
2017-07-19T21:20:26.686Z,48.10
2017-07-19T21:22:54.960Z,48.60
2017-07-19T21:25:23.170Z,48.80
2017-07-19T21:27:51.289Z,48.80
2017-07-19T21:30:20.363Z,48.80
2017-07-19T21:32:48.829Z,48.90
2017-07-19T21:35:16.948Z,49.10
2017-07-19T21:37:45.053Z,49.10
2017-07-19T21:40:13.165Z,49.50
2017-07-19T21:42:41.275Z,49.10
2017-07-19T21:45:10.325Z,49.00
2017-07-19T21:47:38.446Z,49.00
2017-07-19T21:50:06.562Z,49.30
2017-07-19T21:52:34.673Z,49.10
2017-07-19T21:55:02.794Z,49.60
2017-07-19T21:57:30.935Z,49.20
2017-07-19T21:59:59.037Z,48.90
2017-07-19T22:02:27.161Z,48.20
2017-07-19T22:04:55.273Z,48.00
2017-07-19T22:07:23.378Z,48.60
2017-07-19T22:09:51.701Z,48.90
2017-07-19T22:12:19.824Z,49.70
2017-07-19T22:14:48.057Z,50.50
2017-07-19T22:17:16.167Z,54.20
2017-07-19T22:19:44.287Z,58.10
2017-07-19T22:22:12.393Z,61.50
2017-07-19T22:24:40.525Z,63.00
2017-07-19T22:27:08.644Z,64.70
2017-07-19T22:29:36.740Z,65.40
2017-07-19T22:32:04.941Z,65.60
2017-07-19T22:34:33.053Z,65.80
2017-07-19T22:37:01.189Z,68.10
2017-07-19T22:39:29.293Z,67.80
2017-07-19T22:41:57.413Z,68.20
2017-07-19T22:44:25.521Z,68.80
2017-07-19T22:46:53.641Z,65.00
2017-07-19T22:49:21.836Z,64.10
2017-07-19T22:51:50.093Z,62.50
2017-07-19T22:54:18.205Z,61.60
2017-07-19T22:56:46.318Z,61.80
2017-07-19T22:59:14.441Z,62.00
2017-07-19T23:01:42.796Z,62.50
2017-07-19T23:04:10.926Z,63.20
2017-07-19T23:06:39.141Z,63.60
2017-07-19T23:09:07.264Z,65.10
2017-07-19T23:11:35.383Z,66.30
2017-07-19T23:14:04.349Z,67.70
2017-07-19T23:16:32.661Z,67.70
2017-07-19T23:19:00.789Z,68.30
2017-07-19T23:21:28.898Z,69.50
2017-07-19T23:23:57.135Z,71.80
2017-07-19T23:26:25.250Z,73.00
2017-07-19T23:28:53.427Z,75.70
2017-07-19T23:31:21.541Z,78.80
2017-07-19T23:33:49.656Z,80.30
2017-07-19T23:36:17.830Z,85.60
2017-07-19T23:38:45.933Z,86.80
2017-07-19T23:41:14.049Z,90.60
2017-07-19T23:43:42.327Z,93.00
2017-07-19T23:46:10.630Z,94.20
2017-07-19T23:48:39.500Z,95.20
2017-07-19T23:51:07.681Z,95.20
2017-07-19T23:53:35.956Z,95.60
2017-07-19T23:56:04.108Z,95.60
2017-07-19T23:58:32.327Z,95.50
